Date,TemperatureHighF,TemperatureAvgF,TemperatureLowF,DewpointHighF,DewpointAvgF,DewpointLowF,HumidityHigh,HumidityAvg,HumidityLow,PressureMaxIn,PressureMinIn,WindSpeedMaxMPH,WindSpeedAvgMPH,GustSpeedMaxMPH,PrecipitationSumIn
2013-1-1,32,26,17,26,20,12,89,77,54,30.16,30.03,7,2,12,0.00
2013-1-2,23,14,6,12,6,1,86,72,59,30.26,30.14,5,2,13,0.00
2013-1-3,29,22,12,24,14,4,81,72,63,30.25,30.16,10,5,19,0.00
2013-1-4,29,22,14,20,15,8,85,75,62,30.28,30.20,13,6,23,0.00
2013-1-5,34,27,20,29,22,16,87,80,65,30.29,30.06,10,5,20,0.00
2013-1-6,35,31,24,30,25,18,86,80,75,30.32,29.94,13,7,23,0.00
2013-1-7,34,26,18,25,21,15,90,79,65,30.41,30.17,13,5,23,0.00
2013-1-8,32,27,24,24,21,20,83,80,71,30.25,30.16,8,4,14,0.00
2013-1-29,56,55,54,55,54,53,98,95,93,29.78,29.68,9,7,20,0.00
2013-1-30,54,47,37,49,45,34,96,91,80,29.31,29.18,15,9,30,0.00
2013-1-31,21,17,14,15,10,4,83,72,61,29.98,29.78,19,12,33,0.00
2013-2-7,36,36,36,34,33,32,91,89,85,29.80,29.76,3,1,5,0.00
2013-2-8,38,33,30,36,29,24,94,86,77,30.15,29.76,15,8,25,0.00
2013-2-20,21,21,21,12,12,11,68,67,66,30.29,30.28,10,7,19,0.00
2013-3-14,42,38,30,24,18,13,64,45,31,30.30,30.13,11,5,17,0.00
2013-3-15,47,43,35,40,36,31,92,76,60,29.93,29.79,9,3,15,0.00
2013-3-23,44,40,33,23,21,20,62,47,39,30.06,29.98,7,4,15,0.00
2013-4-13,44,42,38,32,29,26,72,60,54,29.97,29.93,16,8,28,0.00
2013-4-14,63,58,47,49,45,38,72,62,55,29.96,29.77,16,10,23,0.00
2013-4-15,67,62,59,55,52,48,83,70,61,29.87,29.80,14,6,25,0.00
2013-4-16,60,51,45,54,42,37,92,73,58,30.19,29.83,8,2,14,0.00
2013-4-17,56,52,46,51,46,41,89,79,74,30.19,29.89,17,12,27,0.00
2013-4-18,72,62,59,64,59,58,96,91,70,29.67,29.51,16,7,40,0.00
2013-4-19,39,38,36,31,30,28,81,72,65,29.85,29.64,21,12,33,0.00
2013-4-20,44,41,36,27,21,16,69,46,33,30.40,30.15,14,6,22,0.00
2013-4-21,50,47,41,32,26,20,64,45,35,30.54,30.37,12,8,20,0.00
2013-4-22,66,61,51,40,33,28,56,36,26,30.29,30.06,10,5,16,0.00
2013-4-23,68,60,49,55,50,39,95,71,47,30.07,29.75,13,6,30,0.00
2013-4-24,45,42,36,34,30,27,88,66,49,30.16,29.95,14,7,24,0.00
2013-4-25,51,48,43,36,30,21,66,50,31,30.33,30.14,15,7,30,0.00
2013-4-26,63,59,50,40,35,31,67,41,33,30.40,30.28,10,4,18,0.00
2013-4-27,69,63,50,48,38,31,68,42,27,30.26,30.00,15,6,23,0.00
2013-4-28,60,58,56,56,51,-100,94,86,69,29.99,29.77,6,2,12,0.00
2013-4-29,71,67,58,54,52,51,83,59,51,29.91,29.83,12,5,16,0.00
2013-4-30,81,74,61,60,56,50,70,55,45,29.96,29.85,11,6,23,0.00
2013-5-1,84,78,67,56,53,49,62,43,31,30.10,29.96,12,4,19,0.00
2013-5-2,81,73,64,55,52,50,68,50,35,30.14,30.02,14,6,27,0.00
2013-5-3,77,72,63,57,53,43,73,52,40,30.03,29.87,15,9,24,0.00
2013-5-4,73,68,61,46,42,35,56,40,26,29.96,29.88,15,8,24,0.00
2013-5-5,69,64,56,49,46,40,67,51,44,29.96,29.90,13,6,23,0.00
2013-5-6,71,67,62,54,50,39,69,53,42,29.95,29.88,13,5,22,0.00
2013-5-7,74,68,58,53,51,48,72,55,42,29.98,29.89,9,4,17,0.00
2013-5-8,80,71,59,55,51,43,84,52,28,29.98,29.87,11,2,18,0.00
2013-5-9,81,69,58,59,55,45,92,63,28,29.94,29.84,9,2,18,0.00
2013-5-10,67,58,46,58,48,-100,91,78,64,29.86,29.74,10,6,19,0.00
2013-5-11,58,50,44,50,40,32,87,71,61,29.97,29.77,16,5,36,0.00
2013-5-12,52,48,42,29,26,24,58,43,35,30.10,30.02,13,6,25,0.00
2013-5-13,62,57,51,28,22,16,38,26,17,30.14,30.04,11,5,19,0.00
2013-5-14,87,77,51,60,50,26,59,39,26,30.06,29.66,13,7,25,0.00
2013-5-15,87,78,68,59,51,44,64,40,23,29.75,29.68,13,6,24,0.00
2013-5-16,86,66,61,58,15,-100,77,36,18,29.91,29.74,5,1,11,0.00
2013-5-17,79,69,64,64,43,-100,84,58,38,30.01,29.90,12,5,20,0.00
2013-5-18,80,74,59,60,56,45,72,55,47,30.04,29.91,7,2,15,0.00
2013-5-19,88,80,65,63,61,52,68,52,38,29.93,29.76,14,3,18,0.00
2013-5-20,88,82,74,68,65,63,79,58,45,29.83,29.73,13,7,28,0.00
2013-5-21,87,80,68,65,60,55,80,52,35,29.75,29.64,14,8,25,0.00
2013-5-22,76,70,63,62,60,58,88,71,53,29.70,29.61,16,6,32,0.00
2013-5-23,63,53,48,59,49,45,92,86,78,30.13,29.69,13,6,21,0.00
2013-5-24,64,58,50,39,35,30,59,43,29,30.33,30.22,9,4,16,0.00
2013-5-25,67,63,57,43,38,33,60,41,31,30.31,30.19,4,2,10,0.00
2013-5-26,71,66,56,50,38,35,65,37,28,30.27,30.11,15,6,21,0.00
2013-5-27,62,59,53,59,56,50,96,90,65,30.15,29.86,14,7,22,0.00
2013-5-28,81,77,69,67,66,63,82,68,60,29.85,29.77,15,8,26,0.00
2013-5-29,86,80,72,65,62,60,74,56,44,29.93,29.82,13,6,24,0.00
2013-5-30,88,82,73,67,64,61,72,57,44,29.97,29.83,13,7,28,0.00
2013-5-31,76,73,65,68,65,59,92,78,68,29.91,29.78,11,6,22,0.00
2013-6-1,74,71,65,64,60,-100,93,73,64,29.83,29.67,14,6,24,0.00
2013-6-2,69,61,50,62,51,-100,86,73,64,29.97,29.68,10,4,18,0.00
2013-6-3,68,64,50,47,40,36,74,43,32,30.05,29.97,9,2,13,0.00
2013-6-4,73,69,56,49,45,41,72,44,33,30.13,30.03,11,6,18,0.00
2013-6-5,76,72,63,52,49,39,57,44,38,30.05,29.85,8,6,17,0.00
2013-6-6,76,70,61,54,51,39,66,52,39,29.88,29.74,8,4,14,0.00
2013-6-7,74,68,61,55,49,-100,72,55,48,29.85,29.78,6,3,13,0.00
2013-6-8,80,75,60,56,51,47,73,45,33,29.95,29.85,9,2,12,0.00
2013-6-9,83,77,68,65,58,53,89,55,36,29.96,29.80,12,4,17,0.00
2013-6-10,80,74,67,65,61,59,92,65,50,29.80,29.68,9,5,17,0.00
2013-6-11,86,77,66,66,63,60,86,64,43,29.89,29.76,10,3,16,0.00
2013-6-12,89,80,66,72,70,64,92,70,55,29.86,29.57,13,4,23,0.00
2013-6-14,81,75,66,59,55,50,76,51,37,30.04,29.96,6,1,14,0.00
2013-6-15,78,71,65,66,61,-100,88,74,55,30.03,29.87,7,2,14,0.00
2013-6-16,81,77,66,67,65,63,89,68,60,29.88,29.83,11,5,19,0.00
2013-6-17,88,82,71,68,60,53,85,50,31,29.89,29.80,8,2,13,0.00
2013-6-18,77,73,66,64,58,-100,76,62,47,29.97,29.81,10,4,16,0.00
2013-6-19,78,74,66,57,52,50,74,48,38,30.08,29.97,7,2,13,0.00
2013-6-20,82,78,64,62,60,56,75,54,46,30.13,30.06,4,1,9,0.00
2013-6-22,89,80,72,71,68,64,78,66,55,30.03,29.93,12,4,26,0.00
2013-6-23,90,81,72,68,65,63,82,61,42,30.01,29.92,14,5,24,0.00
2013-6-24,87,81,67,69,67,64,91,64,47,30.03,29.89,12,6,22,0.00
2013-6-25,90,84,74,72,68,62,71,60,48,29.91,29.74,12,5,19,0.00
2013-6-26,85,75,71,71,69,64,94,82,63,29.81,29.66,6,1,16,0.00
2013-6-27,86,80,71,70,68,65,94,67,55,29.71,29.61,10,4,18,0.00
2013-6-28,81,74,65,64,61,58,90,65,46,29.59,29.51,12,4,21,0.00
2013-6-29,75,69,64,65,62,61,94,79,66,29.64,29.53,9,1,13,0.00
2013-6-30,73,70,64,63,60,57,92,71,64,29.85,29.64,9,4,17,0.00
2013-7-1,73,68,65,61,58,53,82,72,63,29.95,29.85,13,7,24,0.00
2013-7-2,73,71,67,66,65,64,92,82,75,29.98,29.91,6,1,10,0.00
2013-7-3,80,77,67,66,62,60,92,62,51,30.03,29.97,8,4,18,0.00
2013-7-4,80,75,67,66,59,54,94,59,44,30.09,30.01,4,1,11,0.00
2013-7-5,86,80,70,67,65,63,82,61,48,30.04,29.98,6,2,11,0.00
2013-7-6,79,74,69,69,67,65,91,80,66,30.03,29.94,7,2,13,0.00
2013-7-7,83,78,70,69,67,65,89,69,58,30.01,29.91,9,4,16,0.00
2013-7-8,82,78,74,73,70,67,89,77,68,30.02,29.90,10,4,17,0.00
2013-7-9,87,83,77,74,73,71,82,72,62,29.95,29.83,9,4,18,0.00
2013-7-10,85,76,66,75,67,57,90,73,59,29.91,29.77,13,5,30,0.00
2013-7-11,79,75,65,57,55,51,71,51,39,30.02,29.97,10,3,17,0.00
2013-7-12,80,76,70,61,57,53,69,53,40,30.08,30.02,7,3,14,0.00
2013-7-13,83,80,73,67,64,61,82,59,51,30.10,30.04,10,5,18,0.00
2013-7-14,88,84,72,72,70,66,84,64,54,30.15,30.10,9,3,14,0.00
2013-7-15,94,88,76,74,71,70,85,59,48,30.23,30.15,5,2,12,0.00
2013-7-16,93,89,77,72,70,68,83,55,44,30.25,30.19,3,1,10,0.00
2013-7-17,94,89,78,72,70,68,81,55,44,30.28,30.11,5,2,11,0.00
2013-7-18,95,91,80,74,71,69,79,54,43,30.13,29.92,7,3,15,0.00
2013-7-19,92,87,82,74,73,71,72,64,52,29.87,29.73,11,6,23,0.00
2013-7-20,89,82,75,72,64,-100,79,56,41,29.85,29.76,5,2,12,0.00
2013-7-21,90,84,76,70,65,60,79,55,40,29.90,29.80,6,2,13,0.00
2013-7-22,84,81,75,67,66,64,76,60,52,29.78,29.70,6,1,11,0.00
2013-7-23,82,75,63,67,60,54,72,61,53,29.82,29.68,10,5,22,0.00
2013-7-24,74,69,64,55,51,49,67,53,45,29.97,29.93,8,4,16,0.00
2013-7-25,80,75,68,57,54,50,68,48,36,30.06,30.00,3,1,9,0.00
2013-7-26,79,75,70,62,59,56,73,59,46,30.00,29.87,7,4,16,0.00
2013-7-27,77,69,58,61,56,49,72,62,48,29.87,29.75,13,6,24,0.00
2013-7-28,69,66,61,51,49,47,63,55,49,29.97,29.86,13,5,22,0.00
2013-7-29,75,72,64,59,55,52,79,55,49,30.13,30.07,10,3,14,0.00
2013-7-30,80,74,69,62,60,55,77,62,42,30.14,30.05,4,1,9,0.00
2013-8-1,79,75,67,64,58,53,70,56,41,29.91,29.86,8,3,16,0.00
2013-8-2,82,70,67,70,66,64,95,88,58,29.87,29.79,19,3,34,0.00
2013-8-3,77,76,75,65,64,63,71,66,64,29.96,29.94,3,1,12,0.00
2013-8-5,79,74,66,61,59,56,81,61,48,30.05,29.90,8,3,14,0.00
2013-8-6,81,76,71,68,67,64,83,73,64,29.88,29.82,6,2,12,0.00
2013-8-7,85,81,75,72,70,68,82,69,59,29.86,29.77,8,3,14,0.00
2013-8-8,75,74,72,69,67,65,88,81,75,29.92,29.87,6,2,11,0.00
2013-8-12,85,80,75,68,67,63,77,64,50,29.90,29.78,6,2,13,0.00
2013-8-14,71,67,60,52,49,46,71,53,42,30.12,30.09,4,1,9,0.00
2013-8-15,75,64,65,55,32,-100,70,45,37,30.15,30.04,5,1,10,0.00
2013-8-16,78,70,68,58,48,-100,71,52,42,30.11,30.09,6,3,12,0.00
2013-8-17,77,74,69,59,55,53,65,53,43,30.20,30.10,9,3,13,0.00
2013-8-18,84,79,71,62,58,55,69,49,37,30.08,30.03,4,1,10,0.00
2013-8-19,85,79,72,63,47,-100,72,49,41,30.06,29.98,7,2,11,0.00
2013-8-20,89,83,75,66,59,-100,74,48,40,30.13,30.00,6,2,13,0.00
2013-8-21,88,82,73,70,67,63,79,61,47,30.09,29.95,8,2,14,0.00
2013-8-22,77,72,69,70,67,65,94,85,73,30.05,29.93,12,2,20,0.00
2013-8-23,82,72,65,66,62,56,95,72,42,30.11,30.01,5,1,13,0.00
2013-8-24,82,68,56,57,54,48,91,66,31,30.25,30.11,12,2,17,0.00
2013-8-25,88,82,72,64,61,57,75,51,36,30.18,30.13,8,2,14,0.00
2013-8-26,89,76,62,70,65,58,88,71,49,30.16,29.98,9,2,16,0.00
2013-8-27,91,77,71,74,70,68,89,79,56,29.98,29.87,6,2,13,0.00
2013-8-28,89,84,76,74,72,69,81,69,60,29.93,29.84,7,2,13,0.00
2013-8-29,90,77,67,71,68,63,94,76,44,30.01,29.93,5,1,12,0.00
2013-8-30,91,85,70,72,69,64,94,59,44,29.91,29.69,9,4,18,0.00
2013-8-31,79,74,70,68,66,63,89,79,58,29.76,29.71,7,1,14,0.00
2013-9-1,81,76,71,70,69,68,92,80,67,29.73,29.70,6,2,12,0.00
2013-9-2,81,72,61,69,62,54,94,74,42,29.91,29.68,9,2,17,0.00
2013-9-3,76,62,51,57,53,48,92,73,46,30.02,29.90,5,1,14,0.00
2013-9-4,81,73,54,59,56,53,95,58,38,30.09,30.00,8,3,18,0.00
2013-9-5,80,67,56,58,52,44,93,62,36,30.18,30.06,6,2,13,0.00
2013-9-6,83,66,50,58,49,44,87,59,31,30.22,30.01,8,1,14,0.00
2013-9-7,88,81,65,64,61,55,73,51,37,30.02,29.86,8,3,16,0.00
2013-9-9,93,82,62,71,67,58,86,63,43,29.95,29.82,9,4,19,0.00
2013-9-10,97,87,74,72,66,59,88,55,30,29.98,29.86,10,4,18,0.00
2013-9-11,95,86,74,69,65,61,84,52,33,30.02,29.89,9,4,22,0.00
2013-9-12,84,72,62,68,62,52,95,73,35,29.94,29.78,10,3,19,0.00
2013-9-13,65,58,50,54,45,40,80,63,41,30.09,29.94,10,3,18,0.00
2013-9-14,50,43,39,43,40,37,92,88,77,30.14,30.09,0,0,2,0.00
2013-9-16,67,61,53,54,50,47,93,67,51,30.29,30.20,8,3,14,0.00
2013-9-17,70,59,46,50,47,44,93,67,44,30.32,30.13,9,3,15,0.00
2013-9-18,70,57,55,53,47,45,93,71,62,30.14,29.94,3,0,7,0.00
2013-9-19,73,69,65,69,66,60,96,91,72,29.99,29.84,7,2,16,0.00
2013-9-20,77,72,66,69,66,64,94,81,68,29.80,29.72,8,4,16,0.00
2013-9-21,66,58,51,64,53,46,92,84,77,29.86,29.72,3,1,10,0.00
2013-9-22,67,56,50,49,43,-100,91,67,40,30.01,29.86,9,2,15,0.00
2013-9-23,68,54,42,46,44,40,92,70,42,30.10,30.01,8,4,18,0.00
2013-9-24,69,60,44,47,46,42,92,60,41,30.08,29.91,9,4,17,0.00
2013-9-25,73,60,49,53,48,45,95,69,38,29.94,29.86,9,3,16,0.00
2013-9-26,78,62,51,56,50,44,95,68,32,30.05,29.91,10,2,16,0.00
2013-9-27,78,68,54,53,48,41,79,52,35,30.16,30.05,10,3,17,0.00
2013-9-28,60,54,50,51,50,48,93,86,71,30.11,30.07,5,2,10,0.00
2013-9-30,73,64,51,58,55,50,97,75,52,29.99,29.89,7,2,13,0.00
2013-10-1,59,58,58,56,56,55,90,90,90,29.92,29.92,2,2,7,0.00
2013-10-2,82,73,63,66,64,62,97,75,54,30.05,29.95,5,1,10,0.00
2013-10-3,79,69,63,68,64,61,96,84,61,29.98,29.88,9,2,23,0.00
2013-10-4,85,78,67,68,66,63,90,67,50,29.96,29.89,9,3,16,0.00
2013-10-5,79,72,66,70,66,63,93,83,66,29.94,29.80,12,4,25,0.00
2013-10-6,69,67,66,66,64,63,92,90,87,29.80,29.76,9,4,18,0.00
2013-10-7,58,53,45,47,43,40,84,69,58,29.95,29.82,11,8,24,0.00
2013-10-8,74,63,43,51,46,42,96,57,36,30.22,30.14,6,2,14,0.00
2013-10-9,72,58,43,48,43,40,91,61,31,30.24,30.13,8,2,14,0.00
2013-10-10,77,59,45,51,45,41,93,64,28,30.16,30.04,5,1,11,0.00
2013-10-11,79,65,46,51,46,41,93,55,27,30.09,29.97,6,2,13,0.00
2013-10-12,81,64,49,59,51,46,94,66,29,30.04,29.95,7,1,16,0.00
2013-10-13,68,60,66,61,43,-100,79,69,75,30.06,30.04,3,2,11,0.00
2013-10-16,55,51,47,43,42,41,84,72,61,29.92,29.87,14,6,25,0.00
2013-10-17,50,48,44,47,44,40,93,85,76,29.92,29.80,11,3,19,0.00
2013-10-18,63,52,40,45,41,37,94,68,44,29.95,29.86,13,5,23,0.00
2013-10-19,43,43,43,38,38,38,81,81,81,29.92,29.92,2,2,3,0.00
2013-10-20,64,57,41,41,39,36,82,53,39,29.91,29.81,15,7,22,0.00
2013-10-21,55,49,38,45,40,26,80,69,58,29.93,29.82,15,6,23,0.00
2013-10-22,48,36,29,33,28,22,94,73,35,29.98,29.88,8,3,17,0.00
2013-10-23,43,38,34,38,33,26,96,83,57,29.98,29.82,10,2,17,0.00
2013-10-24,42,38,33,32,28,23,85,68,52,30.23,29.97,10,4,22,0.00
2013-10-25,48,42,29,30,26,23,84,54,38,30.38,30.17,10,4,20,0.00
2013-11-11,39,32,29,36,28,20,92,86,71,30.34,30.11,6,4,0,0.00
2013-11-12,36,28,23,25,20,17,79,71,55,30.61,30.34,12,3,17,0.00
2013-11-13,38,28,19,19,17,14,85,64,38,30.59,30.27,11,6,20,0.00
2013-11-14,53,40,29,23,20,16,70,46,25,30.27,30.01,15,8,28,0.00
2013-11-15,53,46,41,32,27,22,70,48,36,30.04,29.97,9,5,19,0.00
2013-11-16,56,51,41,49,45,32,87,80,71,30.01,29.83,11,6,22,0.00
2013-11-18,44,40,34,33,29,27,77,65,55,30.16,29.85,18,7,32,0.00
2013-11-19,43,39,32,27,26,25,80,60,51,30.34,30.16,8,3,13,0.00
2013-11-20,44,39,28,34,29,23,82,66,57,30.34,30.15,13,7,21,0.00
2013-11-21,48,45,42,47,42,34,96,87,72,30.23,30.13,7,3,13,0.00
2013-11-22,42,38,32,41,34,28,96,85,74,30.40,30.19,9,4,23,0.00
2013-11-23,29,23,18,21,12,-100,79,67,57,30.60,30.40,13,6,25,0.00
2013-11-24,25,20,15,14,11,7,84,69,54,30.69,30.48,8,3,15,0.00
2013-11-25,32,26,18,24,14,7,85,62,49,30.48,30.13,12,6,26,0.00
2013-11-26,35,33,28,27,25,24,86,74,66,30.13,29.95,8,4,13,0.00
2013-12-4,59,54,47,56,52,46,97,93,87,29.78,29.58,9,6,18,0.00
2013-12-6,28,26,24,20,18,16,74,70,67,30.38,30.26,6,3,13,0.00
2013-12-13,31,30,29,25,22,20,86,72,64,30.16,30.11,5,3,9,0.00
2013-12-14,29,28,28,26,25,25,88,88,88,30.14,30.14,3,3,6,0.00
2013-12-17,27,25,22,25,22,17,91,88,83,30.08,29.96,9,6,17,0.00
2013-12-18,34,24,16,20,16,11,86,74,59,30.21,29.91,11,5,18,0.00
2013-12-19,35,35,34,22,22,21,58,58,57,29.91,29.90,9,8,19,0.00